Terminal Aerodrome Forecast
Issued by NWS

Home | Current Version | Previous Version | Text Only | Print | Product List | Glossary On
Versions: 1 2 3 4 5 6 7 8 9 10 11 12 13 14 15 16 17 18
031
FTUS44 KLIX 282339 AAB
TAFGPT
TAF AMD
KGPT 282339Z 2900/2924 17005KT P6SM SKC
     FM290700 22007KT P6SM VCTS BKN060 BKN120CB
      TEMPO 2908/2912 3SM TSRA BKN035CB
     FM291400 21007KT P6SM BKN060=

USA.gov is the U.S. government's official web portal to all federal, state and local government web resources and services.